sensor_id;sensor_type;location;lat;lon;timestamp;P1;durP1;ratioP1;P2;durP2;ratioP2
25721;SDS011;13578;53.450;15.496;2023-08-06T00:00:03;3.13;;;1.52;;
25721;SDS011;13578;53.450;15.496;2023-08-06T00:03:04;4.88;;;1.73;;
25721;SDS011;13578;53.450;15.496;2023-08-06T00:06:05;2.88;;;1.73;;
25721;SDS011;13578;53.450;15.496;2023-08-06T00:09:06;3.10;;;1.73;;
25721;SDS011;13578;53.450;15.496;2023-08-06T00:12:07;4.10;;;2.10;;
25721;SDS011;13578;53.450;15.496;2023-08-06T00:15:08;3.40;;;1.98;;
25721;SDS011;13578;53.450;15.496;2023-08-06T00:18:09;4.32;;;1.75;;
25721;SDS011;13578;53.450;15.496;2023-08-06T00:21:09;4.35;;;2.10;;
25721;SDS011;13578;53.450;15.496;2023-08-06T00:24:12;3.70;;;1.88;;
25721;SDS011;13578;53.450;15.496;2023-08-06T00:27:13;5.32;;;1.98;;
25721;SDS011;13578;53.450;15.496;2023-08-06T00:30:13;9.68;;;1.75;;
25721;SDS011;13578;53.450;15.496;2023-08-06T00:33:14;3.05;;;1.40;;
25721;SDS011;13578;53.450;15.496;2023-08-06T00:36:15;5.25;;;1.90;;
25721;SDS011;13578;53.450;15.496;2023-08-06T00:39:16;4.85;;;1.70;;
25721;SDS011;13578;53.450;15.496;2023-08-06T00:42:16;4.47;;;2.25;;
25721;SDS011;13578;53.450;15.496;2023-08-06T00:45:20;3.22;;;1.83;;
25721;SDS011;13578;53.450;15.496;2023-08-06T00:48:22;5.00;;;2.40;;
25721;SDS011;13578;53.450;15.496;2023-08-06T00:51:22;3.78;;;2.40;;
25721;SDS011;13578;53.450;15.496;2023-08-06T00:54:25;4.80;;;2.25;;
25721;SDS011;13578;53.450;15.496;2023-08-06T00:57:27;5.80;;;2.60;;
25721;SDS011;13578;53.450;15.496;2023-08-06T01:00:28;3.17;;;1.83;;
25721;SDS011;13578;53.450;15.496;2023-08-06T01:03:29;4.82;;;2.10;;
25721;SDS011;13578;53.450;15.496;2023-08-06T01:06:48;3.88;;;2.03;;
25721;SDS011;13578;53.450;15.496;2023-08-06T01:13:20;5.28;;;2.50;;
25721;SDS011;13578;53.450;15.496;2023-08-06T01:16:28;3.42;;;1.83;;
25721;SDS011;13578;53.450;15.496;2023-08-06T01:19:30;7.55;;;2.35;;
25721;SDS011;13578;53.450;15.496;2023-08-06T01:22:31;4.05;;;2.60;;
25721;SDS011;13578;53.450;15.496;2023-08-06T01:26:14;5.35;;;3.03;;
25721;SDS011;13578;53.450;15.496;2023-08-06T01:29:18;7.43;;;2.80;;
25721;SDS011;13578;53.450;15.496;2023-08-06T01:32:34;5.80;;;3.45;;
25721;SDS011;13578;53.450;15.496;2023-08-06T01:35:39;6.43;;;3.73;;
25721;SDS011;13578;53.450;15.496;2023-08-06T01:38:40;6.03;;;3.05;;
25721;SDS011;13578;53.450;15.496;2023-08-06T01:41:41;6.03;;;3.60;;
25721;SDS011;13578;53.450;15.496;2023-08-06T01:44:42;8.65;;;3.72;;
25721;SDS011;13578;53.450;15.496;2023-08-06T01:47:42;7.65;;;3.58;;
25721;SDS011;13578;53.450;15.496;2023-08-06T01:50:43;12.00;;;4.13;;
25721;SDS011;13578;53.450;15.496;2023-08-06T01:53:44;6.90;;;3.63;;
25721;SDS011;13578;53.450;15.496;2023-08-06T01:56:44;4.47;;;3.42;;
25721;SDS011;13578;53.450;15.496;2023-08-06T01:59:45;7.75;;;3.50;;
25721;SDS011;13578;53.450;15.496;2023-08-06T02:02:45;5.90;;;3.80;;
25721;SDS011;13578;53.450;15.496;2023-08-06T02:05:46;8.25;;;3.85;;
25721;SDS011;13578;53.450;15.496;2023-08-06T02:08:47;7.88;;;3.85;;
25721;SDS011;13578;53.450;15.496;2023-08-06T02:11:47;6.65;;;3.75;;
25721;SDS011;13578;53.450;15.496;2023-08-06T02:14:48;7.78;;;3.83;;
25721;SDS011;13578;53.450;15.496;2023-08-06T02:17:49;8.73;;;3.92;;
25721;SDS011;13578;53.450;15.496;2023-08-06T02:20:56;8.45;;;4.18;;
25721;SDS011;13578;53.450;15.496;2023-08-06T02:23:57;6.03;;;4.15;;
25721;SDS011;13578;53.450;15.496;2023-08-06T02:26:58;13.20;;;4.13;;
25721;SDS011;13578;53.450;15.496;2023-08-06T02:29:59;6.72;;;3.78;;
25721;SDS011;13578;53.450;15.496;2023-08-06T02:32:59;5.15;;;3.40;;
25721;SDS011;13578;53.450;15.496;2023-08-06T02:36:01;4.25;;;2.83;;
25721;SDS011;13578;53.450;15.496;2023-08-06T02:39:03;12.13;;;3.50;;
25721;SDS011;13578;53.450;15.496;2023-08-06T02:42:04;5.65;;;2.90;;
25721;SDS011;13578;53.450;15.496;2023-08-06T02:45:06;4.53;;;2.92;;
25721;SDS011;13578;53.450;15.496;2023-08-06T02:48:07;9.73;;;3.30;;
25721;SDS011;13578;53.450;15.496;2023-08-06T02:51:07;6.38;;;3.28;;
25721;SDS011;13578;53.450;15.496;2023-08-06T02:54:08;5.60;;;2.80;;
25721;SDS011;13578;53.450;15.496;2023-08-06T02:57:08;6.28;;;3.20;;
25721;SDS011;13578;53.450;15.496;2023-08-06T03:00:09;7.95;;;2.88;;
25721;SDS011;13578;53.450;15.496;2023-08-06T03:03:11;3.58;;;2.67;;
25721;SDS011;13578;53.450;15.496;2023-08-06T03:06:12;8.13;;;3.08;;
25721;SDS011;13578;53.450;15.496;2023-08-06T03:09:13;5.13;;;2.45;;
25721;SDS011;13578;53.450;15.496;2023-08-06T03:12:13;5.43;;;2.72;;
25721;SDS011;13578;53.450;15.496;2023-08-06T03:15:14;3.42;;;2.20;;
25721;SDS011;13578;53.450;15.496;2023-08-06T03:18:14;2.83;;;2.00;;
25721;SDS011;13578;53.450;15.496;2023-08-06T03:21:15;3.10;;;2.00;;
25721;SDS011;13578;53.450;15.496;2023-08-06T03:24:16;5.70;;;2.20;;
25721;SDS011;13578;53.450;15.496;2023-08-06T03:27:16;2.95;;;2.00;;
25721;SDS011;13578;53.450;15.496;2023-08-06T03:30:17;4.38;;;2.13;;
25721;SDS011;13578;53.450;15.496;2023-08-06T03:33:17;4.82;;;2.22;;
25721;SDS011;13578;53.450;15.496;2023-08-06T03:36:18;2.33;;;1.70;;
25721;SDS011;13578;53.450;15.496;2023-08-06T03:39:19;3.20;;;1.60;;
25721;SDS011;13578;53.450;15.496;2023-08-06T03:42:19;8.15;;;1.80;;
25721;SDS011;13578;53.450;15.496;2023-08-06T03:45:20;7.38;;;1.40;;
25721;SDS011;13578;53.450;15.496;2023-08-06T03:48:20;5.10;;;1.75;;
25721;SDS011;13578;53.450;15.496;2023-08-06T03:51:21;3.35;;;1.95;;
25721;SDS011;13578;53.450;15.496;2023-08-06T03:54:22;3.30;;;1.70;;
25721;SDS011;13578;53.450;15.496;2023-08-06T03:57:22;5.82;;;1.90;;
25721;SDS011;13578;53.450;15.496;2023-08-06T04:00:23;4.70;;;2.13;;
25721;SDS011;13578;53.450;15.496;2023-08-06T04:03:24;2.92;;;1.67;;
25721;SDS011;13578;53.450;15.496;2023-08-06T04:06:24;3.10;;;1.40;;
25721;SDS011;13578;53.450;15.496;2023-08-06T04:09:25;3.38;;;1.30;;
25721;SDS011;13578;53.450;15.496;2023-08-06T04:12:28;2.50;;;1.70;;
25721;SDS011;13578;53.450;15.496;2023-08-06T04:15:29;2.25;;;1.38;;
25721;SDS011;13578;53.450;15.496;2023-08-06T04:18:30;8.48;;;2.13;;
25721;SDS011;13578;53.450;15.496;2023-08-06T04:21:30;2.47;;;1.50;;
25721;SDS011;13578;53.450;15.496;2023-08-06T04:24:31;2.13;;;1.30;;
25721;SDS011;13578;53.450;15.496;2023-08-06T04:27:31;2.95;;;1.67;;
25721;SDS011;13578;53.450;15.496;2023-08-06T04:30:32;5.55;;;1.60;;
25721;SDS011;13578;53.450;15.496;2023-08-06T04:33:33;3.17;;;1.55;;
25721;SDS011;13578;53.450;15.496;2023-08-06T04:36:33;7.10;;;1.77;;
25721;SDS011;13578;53.450;15.496;2023-08-06T04:39:34;2.90;;;1.88;;
25721;SDS011;13578;53.450;15.496;2023-08-06T04:42:35;3.97;;;2.25;;
25721;SDS011;13578;53.450;15.496;2023-08-06T04:45:35;34.97;;;2.40;;
25721;SDS011;13578;53.450;15.496;2023-08-06T04:48:36;3.00;;;1.90;;
25721;SDS011;13578;53.450;15.496;2023-08-06T04:51:36;5.05;;;1.75;;
25721;SDS011;13578;53.450;15.496;2023-08-06T04:54:37;3.10;;;1.95;;
25721;SDS011;13578;53.450;15.496;2023-08-06T04:57:37;2.30;;;1.67;;
25721;SDS011;13578;53.450;15.496;2023-08-06T05:00:38;1.95;;;1.55;;
25721;SDS011;13578;53.450;15.496;2023-08-06T05:03:39;4.00;;;1.60;;
25721;SDS011;13578;53.450;15.496;2023-08-06T05:06:39;3.60;;;1.40;;
25721;SDS011;13578;53.450;15.496;2023-08-06T05:09:41;2.15;;;1.35;;
25721;SDS011;13578;53.450;15.496;2023-08-06T05:12:41;1.83;;;1.50;;
25721;SDS011;13578;53.450;15.496;2023-08-06T05:15:42;2.53;;;1.30;;
25721;SDS011;13578;53.450;15.496;2023-08-06T05:18:45;2.58;;;1.50;;
25721;SDS011;13578;53.450;15.496;2023-08-06T05:21:46;1.90;;;1.50;;
25721;SDS011;13578;53.450;15.496;2023-08-06T05:24:46;5.88;;;1.58;;
25721;SDS011;13578;53.450;15.496;2023-08-06T05:27:47;4.03;;;1.63;;
25721;SDS011;13578;53.450;15.496;2023-08-06T05:30:47;1.95;;;1.33;;
25721;SDS011;13578;53.450;15.496;2023-08-06T05:33:48;3.22;;;1.55;;
25721;SDS011;13578;53.450;15.496;2023-08-06T05:36:49;1.73;;;1.10;;
25721;SDS011;13578;53.450;15.496;2023-08-06T05:39:49;3.13;;;1.50;;
25721;SDS011;13578;53.450;15.496;2023-08-06T05:42:52;3.25;;;1.60;;
25721;SDS011;13578;53.450;15.496;2023-08-06T05:45:54;3.10;;;1.92;;
25721;SDS011;13578;53.450;15.496;2023-08-06T05:48:56;6.15;;;1.67;;
25721;SDS011;13578;53.450;15.496;2023-08-06T05:51:56;3.15;;;1.40;;
25721;SDS011;13578;53.450;15.496;2023-08-06T05:54:57;2.30;;;1.48;;
25721;SDS011;13578;53.450;15.496;2023-08-06T05:57:58;3.22;;;1.35;;
25721;SDS011;13578;53.450;15.496;2023-08-06T06:00:58;3.65;;;1.67;;
25721;SDS011;13578;53.450;15.496;2023-08-06T06:03:59;2.22;;;1.35;;
25721;SDS011;13578;53.450;15.496;2023-08-06T06:06:59;2.65;;;1.55;;
25721;SDS011;13578;53.450;15.496;2023-08-06T06:10:00;3.00;;;1.50;;
25721;SDS011;13578;53.450;15.496;2023-08-06T06:13:01;2.17;;;1.45;;
25721;SDS011;13578;53.450;15.496;2023-08-06T06:16:01;1.75;;;1.20;;
25721;SDS011;13578;53.450;15.496;2023-08-06T06:19:02;4.68;;;1.60;;
25721;SDS011;13578;53.450;15.496;2023-08-06T06:22:02;2.67;;;1.63;;
25721;SDS011;13578;53.450;15.496;2023-08-06T06:25:03;1.70;;;1.20;;
25721;SDS011;13578;53.450;15.496;2023-08-06T06:28:04;3.13;;;1.60;;
25721;SDS011;13578;53.450;15.496;2023-08-06T06:31:05;4.68;;;1.35;;
25721;SDS011;13578;53.450;15.496;2023-08-06T06:34:05;2.30;;;1.40;;
25721;SDS011;13578;53.450;15.496;2023-08-06T06:37:06;2.03;;;1.42;;
25721;SDS011;13578;53.450;15.496;2023-08-06T06:40:07;3.25;;;1.20;;
25721;SDS011;13578;53.450;15.496;2023-08-06T06:43:08;2.88;;;1.42;;
25721;SDS011;13578;53.450;15.496;2023-08-06T06:46:08;4.72;;;1.38;;
25721;SDS011;13578;53.450;15.496;2023-08-06T06:49:09;4.30;;;1.80;;
25721;SDS011;13578;53.450;15.496;2023-08-06T06:52:09;3.00;;;1.80;;
25721;SDS011;13578;53.450;15.496;2023-08-06T06:55:11;2.17;;;1.42;;
25721;SDS011;13578;53.450;15.496;2023-08-06T06:58:12;1.95;;;1.45;;
25721;SDS011;13578;53.450;15.496;2023-08-06T07:01:14;2.05;;;1.27;;
25721;SDS011;13578;53.450;15.496;2023-08-06T07:04:15;5.18;;;1.67;;
25721;SDS011;13578;53.450;15.496;2023-08-06T07:07:15;1.92;;;1.23;;
25721;SDS011;13578;53.450;15.496;2023-08-06T07:10:16;1.85;;;1.33;;
25721;SDS011;13578;53.450;15.496;2023-08-06T07:13:17;5.75;;;1.33;;
25721;SDS011;13578;53.450;15.496;2023-08-06T07:16:17;3.63;;;1.40;;
25721;SDS011;13578;53.450;15.496;2023-08-06T07:19:18;2.47;;;1.58;;
25721;SDS011;13578;53.450;15.496;2023-08-06T07:22:18;2.03;;;1.40;;
25721;SDS011;13578;53.450;15.496;2023-08-06T07:25:19;1.48;;;1.20;;
25721;SDS011;13578;53.450;15.496;2023-08-06T07:28:20;2.80;;;1.48;;
25721;SDS011;13578;53.450;15.496;2023-08-06T07:31:20;3.72;;;1.40;;
25721;SDS011;13578;53.450;15.496;2023-08-06T07:34:21;1.80;;;1.40;;
25721;SDS011;13578;53.450;15.496;2023-08-06T07:37:22;1.88;;;1.33;;
25721;SDS011;13578;53.450;15.496;2023-08-06T07:40:23;3.00;;;1.20;;
25721;SDS011;13578;53.450;15.496;2023-08-06T07:43:24;2.55;;;1.98;;
25721;SDS011;13578;53.450;15.496;2023-08-06T07:46:24;2.20;;;1.40;;
25721;SDS011;13578;53.450;15.496;2023-08-06T07:49:26;2.25;;;1.20;;
25721;SDS011;13578;53.450;15.496;2023-08-06T07:52:27;1.77;;;1.08;;
25721;SDS011;13578;53.450;15.496;2023-08-06T07:55:27;2.58;;;1.02;;
25721;SDS011;13578;53.450;15.496;2023-08-06T07:58:28;1.77;;;1.08;;
25721;SDS011;13578;53.450;15.496;2023-08-06T08:01:29;1.95;;;0.93;;
25721;SDS011;13578;53.450;15.496;2023-08-06T08:04:30;1.40;;;0.82;;
25721;SDS011;13578;53.450;15.496;2023-08-06T08:07:31;2.20;;;1.05;;
25721;SDS011;13578;53.450;15.496;2023-08-06T08:10:31;2.38;;;1.40;;
25721;SDS011;13578;53.450;15.496;2023-08-06T08:13:32;3.47;;;0.55;;
25721;SDS011;13578;53.450;15.496;2023-08-06T08:16:34;3.38;;;1.25;;
25721;SDS011;13578;53.450;15.496;2023-08-06T08:19:35;3.60;;;0.95;;
25721;SDS011;13578;53.450;15.496;2023-08-06T08:22:35;1.05;;;0.75;;
25721;SDS011;13578;53.450;15.496;2023-08-06T08:25:36;1.90;;;0.80;;
25721;SDS011;13578;53.450;15.496;2023-08-06T08:28:36;3.22;;;0.75;;
25721;SDS011;13578;53.450;15.496;2023-08-06T08:31:37;1.85;;;0.60;;
25721;SDS011;13578;53.450;15.496;2023-08-06T08:34:39;1.52;;;0.50;;
25721;SDS011;13578;53.450;15.496;2023-08-06T08:37:40;1.77;;;0.90;;
25721;SDS011;13578;53.450;15.496;2023-08-06T08:40:42;1.85;;;0.50;;
25721;SDS011;13578;53.450;15.496;2023-08-06T08:43:50;0.80;;;0.63;;
25721;SDS011;13578;53.450;15.496;2023-08-06T08:46:51;1.85;;;0.60;;
25721;SDS011;13578;53.450;15.496;2023-08-06T08:49:53;1.17;;;0.75;;
25721;SDS011;13578;53.450;15.496;2023-08-06T08:52:57;0.73;;;0.40;;
25721;SDS011;13578;53.450;15.496;2023-08-06T08:55:58;1.20;;;0.52;;
25721;SDS011;13578;53.450;15.496;2023-08-06T08:58:58;1.05;;;0.47;;
25721;SDS011;13578;53.450;15.496;2023-08-06T09:02:00;0.52;;;0.30;;
25721;SDS011;13578;53.450;15.496;2023-08-06T09:05:01;2.00;;;0.60;;
25721;SDS011;13578;53.450;15.496;2023-08-06T09:08:04;4.82;;;0.80;;
25721;SDS011;13578;53.450;15.496;2023-08-06T09:11:05;0.70;;;0.60;;
25721;SDS011;13578;53.450;15.496;2023-08-06T09:14:10;1.00;;;0.50;;
25721;SDS011;13578;53.450;15.496;2023-08-06T09:17:11;1.58;;;0.80;;
25721;SDS011;13578;53.450;15.496;2023-08-06T09:20:13;1.05;;;0.52;;
25721;SDS011;13578;53.450;15.496;2023-08-06T09:23:14;1.58;;;0.63;;
25721;SDS011;13578;53.450;15.496;2023-08-06T09:26:15;1.23;;;0.85;;
25721;SDS011;13578;53.450;15.496;2023-08-06T09:29:15;5.47;;;1.17;;
25721;SDS011;13578;53.450;15.496;2023-08-06T09:32:16;1.20;;;0.60;;
25721;SDS011;13578;53.450;15.496;2023-08-06T09:35:17;1.15;;;0.50;;
25721;SDS011;13578;53.450;15.496;2023-08-06T09:38:18;1.95;;;0.88;;
25721;SDS011;13578;53.450;15.496;2023-08-06T09:41:28;5.05;;;1.00;;
25721;SDS011;13578;53.450;15.496;2023-08-06T09:44:29;0.93;;;0.70;;
25721;SDS011;13578;53.450;15.496;2023-08-06T09:47:31;0.60;;;0.45;;
25721;SDS011;13578;53.450;15.496;2023-08-06T09:50:32;13.85;;;1.95;;
25721;SDS011;13578;53.450;15.496;2023-08-06T09:53:36;4.22;;;0.93;;
25721;SDS011;13578;53.450;15.496;2023-08-06T09:56:38;1.10;;;0.63;;
25721;SDS011;13578;53.450;15.496;2023-08-06T09:59:40;2.67;;;0.70;;
25721;SDS011;13578;53.450;15.496;2023-08-06T10:02:43;2.47;;;1.13;;
25721;SDS011;13578;53.450;15.496;2023-08-06T10:05:45;1.33;;;0.85;;
25721;SDS011;13578;53.450;15.496;2023-08-06T10:08:45;1.27;;;0.90;;
25721;SDS011;13578;53.450;15.496;2023-08-06T10:11:51;2.75;;;1.05;;
25721;SDS011;13578;53.450;15.496;2023-08-06T10:14:54;2.15;;;1.23;;
25721;SDS011;13578;53.450;15.496;2023-08-06T10:17:57;1.38;;;0.73;;
25721;SDS011;13578;53.450;15.496;2023-08-06T10:21:00;3.33;;;0.93;;
25721;SDS011;13578;53.450;15.496;2023-08-06T10:24:01;2.05;;;0.98;;
25721;SDS011;13578;53.450;15.496;2023-08-06T10:27:03;2.45;;;0.82;;
25721;SDS011;13578;53.450;15.496;2023-08-06T10:33:43;1.83;;;0.82;;
25721;SDS011;13578;53.450;15.496;2023-08-06T10:36:47;2.30;;;1.13;;
25721;SDS011;13578;53.450;15.496;2023-08-06T10:39:52;1.23;;;0.80;;
25721;SDS011;13578;53.450;15.496;2023-08-06T10:45:55;2.20;;;0.50;;
25721;SDS011;13578;53.450;15.496;2023-08-06T10:48:56;0.93;;;0.60;;
25721;SDS011;13578;53.450;15.496;2023-08-06T10:51:57;0.93;;;0.60;;
25721;SDS011;13578;53.450;15.496;2023-08-06T10:54:58;7.50;;;0.80;;
25721;SDS011;13578;53.450;15.496;2023-08-06T10:57:58;1.42;;;0.60;;
25721;SDS011;13578;53.450;15.496;2023-08-06T11:00:59;0.52;;;0.47;;
25721;SDS011;13578;53.450;15.496;2023-08-06T11:04:01;0.85;;;0.40;;
25721;SDS011;13578;53.450;15.496;2023-08-06T11:07:03;0.88;;;0.40;;
25721;SDS011;13578;53.450;15.496;2023-08-06T11:10:04;0.60;;;0.40;;
25721;SDS011;13578;53.450;15.496;2023-08-06T11:13:06;3.10;;;0.38;;
25721;SDS011;13578;53.450;15.496;2023-08-06T11:16:07;0.93;;;0.52;;
25721;SDS011;13578;53.450;15.496;2023-08-06T11:19:09;0.73;;;0.45;;
25721;SDS011;13578;53.450;15.496;2023-08-06T11:22:10;1.50;;;0.60;;
25721;SDS011;13578;53.450;15.496;2023-08-06T11:25:10;1.42;;;0.40;;
25721;SDS011;13578;53.450;15.496;2023-08-06T11:28:11;0.85;;;0.32;;
25721;SDS011;13578;53.450;15.496;2023-08-06T11:31:19;0.82;;;0.43;;
25721;SDS011;13578;53.450;15.496;2023-08-06T11:34:23;0.70;;;0.40;;
25721;SDS011;13578;53.450;15.496;2023-08-06T11:37:24;2.05;;;0.40;;
25721;SDS011;13578;53.450;15.496;2023-08-06T11:40:25;0.73;;;0.40;;
25721;SDS011;13578;53.450;15.496;2023-08-06T11:43:26;0.65;;;0.30;;
25721;SDS011;13578;53.450;15.496;2023-08-06T11:46:26;2.05;;;0.30;;
25721;SDS011;13578;53.450;15.496;2023-08-06T11:52:48;0.30;;;0.20;;
25721;SDS011;13578;53.450;15.496;2023-08-06T11:55:55;0.75;;;0.52;;
25721;SDS011;13578;53.450;15.496;2023-08-06T11:58:55;17.00;;;1.05;;
25721;SDS011;13578;53.450;15.496;2023-08-06T12:01:56;2.08;;;1.17;;
25721;SDS011;13578;53.450;15.496;2023-08-06T12:05:00;2.45;;;0.75;;
25721;SDS011;13578;53.450;15.496;2023-08-06T12:08:09;0.50;;;0.47;;
25721;SDS011;13578;53.450;15.496;2023-08-06T12:11:10;2.50;;;0.50;;
25721;SDS011;13578;53.450;15.496;2023-08-06T12:14:11;1.05;;;0.47;;
25721;SDS011;13578;53.450;15.496;2023-08-06T12:17:11;4.28;;;0.30;;
25721;SDS011;13578;53.450;15.496;2023-08-06T12:20:12;8.55;;;0.50;;
25721;SDS011;13578;53.450;15.496;2023-08-06T12:23:13;5.68;;;0.68;;
25721;SDS011;13578;53.450;15.496;2023-08-06T12:26:15;0.65;;;0.40;;
25721;SDS011;13578;53.450;15.496;2023-08-06T12:29:16;0.52;;;0.45;;
25721;SDS011;13578;53.450;15.496;2023-08-06T12:32:16;0.80;;;0.52;;
25721;SDS011;13578;53.450;15.496;2023-08-06T12:35:17;0.73;;;0.50;;
25721;SDS011;13578;53.450;15.496;2023-08-06T12:38:17;0.57;;;0.40;;
25721;SDS011;13578;53.450;15.496;2023-08-06T12:41:18;1.20;;;0.50;;
25721;SDS011;13578;53.450;15.496;2023-08-06T12:44:19;1.00;;;0.40;;
25721;SDS011;13578;53.450;15.496;2023-08-06T12:47:20;0.50;;;0.47;;
25721;SDS011;13578;53.450;15.496;2023-08-06T12:50:20;2.53;;;0.70;;
25721;SDS011;13578;53.450;15.496;2023-08-06T12:53:21;1.13;;;0.60;;
25721;SDS011;13578;53.450;15.496;2023-08-06T12:56:23;1.85;;;0.40;;
25721;SDS011;13578;53.450;15.496;2023-08-06T12:59:24;1.63;;;0.45;;
25721;SDS011;13578;53.450;15.496;2023-08-06T13:02:24;2.28;;;0.50;;
25721;SDS011;13578;53.450;15.496;2023-08-06T13:05:29;1.13;;;0.43;;
25721;SDS011;13578;53.450;15.496;2023-08-06T13:08:30;0.82;;;0.60;;
25721;SDS011;13578;53.450;15.496;2023-08-06T13:11:37;1.15;;;0.32;;
25721;SDS011;13578;53.450;15.496;2023-08-06T13:14:39;1.02;;;0.52;;
25721;SDS011;13578;53.450;15.496;2023-08-06T13:17:39;1.20;;;0.65;;
25721;SDS011;13578;53.450;15.496;2023-08-06T13:20:40;0.30;;;0.30;;
25721;SDS011;13578;53.450;15.496;2023-08-06T13:23:41;0.70;;;0.50;;
25721;SDS011;13578;53.450;15.496;2023-08-06T13:26:41;1.33;;;0.40;;
25721;SDS011;13578;53.450;15.496;2023-08-06T13:29:42;1.92;;;0.80;;
25721;SDS011;13578;53.450;15.496;2023-08-06T13:32:42;1.60;;;0.70;;
25721;SDS011;13578;53.450;15.496;2023-08-06T13:35:44;0.70;;;0.50;;
25721;SDS011;13578;53.450;15.496;2023-08-06T13:38:45;0.55;;;0.40;;
25721;SDS011;13578;53.450;15.496;2023-08-06T13:41:46;3.10;;;0.80;;
25721;SDS011;13578;53.450;15.496;2023-08-06T13:44:46;0.30;;;0.30;;
25721;SDS011;13578;53.450;15.496;2023-08-06T13:47:47;0.30;;;0.25;;
25721;SDS011;13578;53.450;15.496;2023-08-06T13:50:47;0.60;;;0.40;;
25721;SDS011;13578;53.450;15.496;2023-08-06T13:53:48;0.90;;;0.50;;
25721;SDS011;13578;53.450;15.496;2023-08-06T13:56:49;0.77;;;0.50;;
25721;SDS011;13578;53.450;15.496;2023-08-06T13:59:51;0.55;;;0.43;;
25721;SDS011;13578;53.450;15.496;2023-08-06T14:02:51;0.57;;;0.40;;
25721;SDS011;13578;53.450;15.496;2023-08-06T14:05:52;3.60;;;0.70;;
25721;SDS011;13578;53.450;15.496;2023-08-06T14:08:55;1.17;;;0.70;;
25721;SDS011;13578;53.450;15.496;2023-08-06T14:11:56;1.17;;;0.60;;
25721;SDS011;13578;53.450;15.496;2023-08-06T14:14:56;0.98;;;0.60;;
25721;SDS011;13578;53.450;15.496;2023-08-06T14:17:57;1.33;;;0.60;;
25721;SDS011;13578;53.450;15.496;2023-08-06T14:20:58;1.13;;;0.52;;
25721;SDS011;13578;53.450;15.496;2023-08-06T14:23:58;1.05;;;0.50;;
25721;SDS011;13578;53.450;15.496;2023-08-06T14:26:59;0.80;;;0.52;;
25721;SDS011;13578;53.450;15.496;2023-08-06T14:30:00;3.45;;;1.23;;
25721;SDS011;13578;53.450;15.496;2023-08-06T14:33:03;1.17;;;0.60;;
25721;SDS011;13578;53.450;15.496;2023-08-06T14:36:03;0.70;;;0.60;;
25721;SDS011;13578;53.450;15.496;2023-08-06T14:39:04;0.98;;;0.80;;
25721;SDS011;13578;53.450;15.496;2023-08-06T14:42:05;0.70;;;0.57;;
25721;SDS011;13578;53.450;15.496;2023-08-06T14:45:05;1.05;;;0.60;;
25721;SDS011;13578;53.450;15.496;2023-08-06T14:48:06;1.83;;;0.73;;
25721;SDS011;13578;53.450;15.496;2023-08-06T14:51:07;2.20;;;0.90;;
25721;SDS011;13578;53.450;15.496;2023-08-06T14:54:08;2.83;;;1.35;;
25721;SDS011;13578;53.450;15.496;2023-08-06T14:57:09;0.52;;;0.50;;
25721;SDS011;13578;53.450;15.496;2023-08-06T15:00:10;1.10;;;0.70;;
25721;SDS011;13578;53.450;15.496;2023-08-06T15:03:11;4.22;;;0.68;;
25721;SDS011;13578;53.450;15.496;2023-08-06T15:06:12;1.98;;;0.70;;
25721;SDS011;13578;53.450;15.496;2023-08-06T15:09:12;2.13;;;0.70;;
25721;SDS011;13578;53.450;15.496;2023-08-06T15:12:13;0.63;;;0.50;;
25721;SDS011;13578;53.450;15.496;2023-08-06T15:15:15;0.82;;;0.70;;
25721;SDS011;13578;53.450;15.496;2023-08-06T15:18:15;1.30;;;0.60;;
25721;SDS011;13578;53.450;15.496;2023-08-06T15:21:16;1.33;;;0.70;;
25721;SDS011;13578;53.450;15.496;2023-08-06T15:24:17;0.70;;;0.47;;
25721;SDS011;13578;53.450;15.496;2023-08-06T15:27:18;2.40;;;0.63;;
25721;SDS011;13578;53.450;15.496;2023-08-06T15:30:18;1.02;;;0.60;;
25721;SDS011;13578;53.450;15.496;2023-08-06T15:33:20;0.65;;;0.50;;
25721;SDS011;13578;53.450;15.496;2023-08-06T15:36:21;1.67;;;1.00;;
25721;SDS011;13578;53.450;15.496;2023-08-06T15:39:22;0.43;;;0.32;;
25721;SDS011;13578;53.450;15.496;2023-08-06T15:42:23;1.08;;;0.70;;
25721;SDS011;13578;53.450;15.496;2023-08-06T15:45:24;0.70;;;0.50;;
25721;SDS011;13578;53.450;15.496;2023-08-06T15:49:47;0.60;;;0.50;;
25721;SDS011;13578;53.450;15.496;2023-08-06T15:52:48;2.30;;;0.50;;
25721;SDS011;13578;53.450;15.496;2023-08-06T15:55:49;0.47;;;0.40;;
25721;SDS011;13578;53.450;15.496;2023-08-06T15:58:50;1.30;;;0.50;;
25721;SDS011;13578;53.450;15.496;2023-08-06T16:01:50;1.38;;;0.50;;
25721;SDS011;13578;53.450;15.496;2023-08-06T16:04:52;0.70;;;0.50;;
25721;SDS011;13578;53.450;15.496;2023-08-06T16:07:53;1.63;;;0.60;;
25721;SDS011;13578;53.450;15.496;2023-08-06T16:10:53;1.02;;;0.68;;
25721;SDS011;13578;53.450;15.496;2023-08-06T16:13:54;0.60;;;0.60;;
25721;SDS011;13578;53.450;15.496;2023-08-06T16:16:55;2.78;;;1.05;;
25721;SDS011;13578;53.450;15.496;2023-08-06T16:19:55;1.52;;;0.68;;
25721;SDS011;13578;53.450;15.496;2023-08-06T16:22:56;4.35;;;0.60;;
25721;SDS011;13578;53.450;15.496;2023-08-06T16:25:57;0.70;;;0.50;;
25721;SDS011;13578;53.450;15.496;2023-08-06T16:28:57;0.73;;;0.63;;
25721;SDS011;13578;53.450;15.496;2023-08-06T16:31:58;1.15;;;0.70;;
25721;SDS011;13578;53.450;15.496;2023-08-06T16:35:00;2.72;;;0.75;;
25721;SDS011;13578;53.450;15.496;2023-08-06T16:38:01;0.73;;;0.40;;
25721;SDS011;13578;53.450;15.496;2023-08-06T16:41:02;1.48;;;0.85;;
25721;SDS011;13578;53.450;15.496;2023-08-06T16:44:04;6.13;;;0.60;;
25721;SDS011;13578;53.450;15.496;2023-08-06T16:47:12;1.92;;;0.63;;
25721;SDS011;13578;53.450;15.496;2023-08-06T16:50:12;1.00;;;0.80;;
25721;SDS011;13578;53.450;15.496;2023-08-06T16:53:13;2.03;;;0.60;;
25721;SDS011;13578;53.450;15.496;2023-08-06T16:56:14;2.35;;;0.85;;
25721;SDS011;13578;53.450;15.496;2023-08-06T16:59:15;2.42;;;0.95;;
25721;SDS011;13578;53.450;15.496;2023-08-06T17:02:15;2.92;;;0.82;;
25721;SDS011;13578;53.450;15.496;2023-08-06T17:05:16;4.03;;;0.95;;
25721;SDS011;13578;53.450;15.496;2023-08-06T17:08:17;0.80;;;0.40;;
25721;SDS011;13578;53.450;15.496;2023-08-06T17:11:17;0.88;;;0.70;;
25721;SDS011;13578;53.450;15.496;2023-08-06T17:14:18;1.23;;;0.60;;
25721;SDS011;13578;53.450;15.496;2023-08-06T17:17:19;0.60;;;0.50;;
25721;SDS011;13578;53.450;15.496;2023-08-06T17:20:19;1.95;;;0.80;;
25721;SDS011;13578;53.450;15.496;2023-08-06T17:23:20;4.53;;;0.80;;
25721;SDS011;13578;53.450;15.496;2023-08-06T17:26:20;3.80;;;1.00;;
25721;SDS011;13578;53.450;15.496;2023-08-06T17:29:21;2.22;;;0.90;;
25721;SDS011;13578;53.450;15.496;2023-08-06T17:32:22;0.50;;;0.35;;
25721;SDS011;13578;53.450;15.496;2023-08-06T17:35:22;0.82;;;0.40;;
25721;SDS011;13578;53.450;15.496;2023-08-06T17:38:23;1.92;;;0.85;;
25721;SDS011;13578;53.450;15.496;2023-08-06T17:41:24;6.53;;;1.92;;
25721;SDS011;13578;53.450;15.496;2023-08-06T17:44:24;1.73;;;1.05;;
25721;SDS011;13578;53.450;15.496;2023-08-06T17:47:27;1.70;;;0.90;;
25721;SDS011;13578;53.450;15.496;2023-08-06T17:50:27;1.05;;;0.75;;
25721;SDS011;13578;53.450;15.496;2023-08-06T17:53:28;0.80;;;0.40;;
25721;SDS011;13578;53.450;15.496;2023-08-06T17:56:29;1.58;;;0.50;;
25721;SDS011;13578;53.450;15.496;2023-08-06T17:59:29;0.70;;;0.60;;
25721;SDS011;13578;53.450;15.496;2023-08-06T18:02:30;0.80;;;0.70;;
25721;SDS011;13578;53.450;15.496;2023-08-06T18:05:31;3.28;;;0.70;;
25721;SDS011;13578;53.450;15.496;2023-08-06T18:08:32;1.75;;;0.77;;